New Seabury, Massachusetts
Current Conditions -  °F | °C
As of 12:15 AM on Sunday 26 Oct 2014 (Local Time) from KFMH Reporting Station
Broken Clouds Broken Clouds  
Wind Chill: 59°   Ceiling: 10000
Heat Index: 59°   Visibility: 10mi
Dew Point: 55°   Wind: 13mph
Humidity: 88%   Direction: 230°SW
Pressure: 29.52"   Gusts: NA
Location:  41.6167°N, 70.4906°W
Report Text: KFMH 260415Z AUTO 23011KT 10SM BKN100 15/13 A2952 RMK AO2
Loading
Personal Weather Stations






























Interactive Weather Map New forecast layout! Learn more

10-Day Weather Forecast

Advertisements
Track Severe Weather on mobile